Time;durP1;ratioP1;P1;durP2;ratioP2;P2;SDS_P1;SDS_P2;PMS_P1;PMS_P2;Temp;Humidity;BMP_temperature;BMP_pressure;BME280_temperature;BME280_humidity;BME280_pressure;Samples;Min_cycle;Max_cycle;Signal;HPM_P1;HPM_P2
2022/06/24 00:02:18;;;;;;;;;3.75;3.75;;;;;23.71;54.38;99986.88;5076388;27;45559;-78
2022/06/24 00:04:54;;;;;;;;;2.00;2.00;;;;;23.67;54.92;99988.13;5076598;28;45444;-78
2022/06/24 00:07:20;;;;;;;;;2.50;2.50;;;;;23.62;55.00;99994.88;5076256;27;45525;-77
2022/06/24 00:09:45;;;;;;;;;3.75;3.75;;;;;23.64;55.35;100003.69;5077145;27;46101;-79
2022/06/24 00:12:17;;;;;;;;;2.75;2.75;;;;;23.56;55.14;100001.66;5077154;27;45488;-77
2022/06/24 00:14:45;;;;;;;;;3.00;3.00;;;;;23.57;54.99;100004.22;5098758;27;45366;-77
2022/06/24 00:17:12;;;;;;;;;7.00;3.50;;;;;23.57;54.37;99998.81;5097449;27;45459;-77
2022/06/24 00:19:54;;;;;;;;;3.50;3.25;;;;;23.53;55.62;100008.13;5095734;27;45667;-77
2022/06/24 00:22:21;;;;;;;;;3.00;3.00;;;;;23.51;55.09;100010.13;5095926;27;45396;-77
2022/06/24 00:24:46;;;;;;;;;2.25;2.25;;;;;23.51;55.51;99999.34;5096942;27;45502;-77
2022/06/24 00:27:20;;;;;;;;;2.00;2.00;;;;;23.55;54.65;100002.63;5096729;27;45514;-77
2022/06/24 00:29:46;;;;;;;;;3.50;2.75;;;;;23.55;54.98;99997.22;5096332;27;46375;-78
2022/06/24 00:32:12;;;;;;;;;3.25;3.25;;;;;23.50;54.64;100000.31;5096501;27;45433;-76
2022/06/24 00:34:39;;;;;;;;;2.00;2.00;;;;;23.43;54.58;99991.03;5094501;27;45466;-78
2022/06/24 00:37:24;;;;;;;;;4.00;3.00;;;;;23.50;55.17;100004.84;5096917;27;45417;-75
2022/06/24 00:39:56;;;;;;;;;3.00;3.00;;;;;23.51;54.73;100003.88;5096577;27;45409;-77
2022/06/24 00:42:23;;;;;;;;;4.00;3.50;;;;;23.48;54.33;100007.69;5096792;27;45405;-76
2022/06/24 00:45:22;;;;;;;;;4.75;3.00;;;;;23.50;54.24;100010.25;5095392;27;45453;-77
2022/06/24 00:47:48;;;;;;;;;2.50;2.50;;;;;23.46;54.52;99998.00;5096394;27;45378;-78
2022/06/24 00:50:26;;;;;;;;;2.00;2.00;;;;;23.51;53.78;100002.03;5095692;27;46082;-77
2022/06/24 00:52:54;;;;;;;;;4.00;3.25;;;;;23.53;54.44;99994.66;5096525;27;45407;-77
2022/06/24 00:55:25;;;;;;;;;3.75;3.75;;;;;23.53;54.01;100000.06;5096203;27;45461;-76
2022/06/24 00:57:50;;;;;;;;;2.00;2.00;;;;;23.52;53.42;99994.78;5096147;27;45463;-77
2022/06/24 01:00:16;;;;;;;;;4.00;1.00;;;;;23.48;53.86;99994.19;5097203;27;46493;-78
2022/06/24 01:02:42;;;;;;;;;2.25;2.25;;;;;23.43;53.86;99996.44;5096299;27;45464;-77
2022/06/24 01:05:09;;;;;;;;;1.25;1.25;;;;;23.41;53.42;100001.94;5096033;27;45528;-81
2022/06/24 01:07:39;;;;;;;;;2.00;2.00;;;;;23.50;53.26;100008.41;5097464;27;45505;-80
2022/06/24 01:10:09;;;;;;;;;1.00;1.00;;;;;23.39;52.98;99978.78;5096764;27;46314;-80
2022/06/24 01:12:36;;;;;;;;;2.75;2.75;;;;;23.51;53.63;100002.03;5096879;27;45470;-81
2022/06/24 01:15:05;;;;;;;;;3.00;3.00;;;;;23.49;52.98;100005.81;5099359;27;45431;-81
2022/06/24 01:17:31;;;;;;;;;2.00;2.00;;;;;23.47;52.79;100000.56;5097084;27;45381;-82
2022/06/24 01:19:57;;;;;;;;;2.75;2.75;;;;;23.39;53.13;99989.56;5095284;27;45364;-81
2022/06/24 01:22:23;;;;;;;;;3.25;2.75;;;;;23.49;53.44;100000.44;5097067;27;45351;-80
2022/06/24 01:24:49;;;;;;;;;2.00;2.00;;;;;23.33;53.00;99966.66;5096825;27;45408;-82
2022/06/24 01:27:15;;;;;;;;;2.50;2.25;;;;;23.40;53.38;99994.84;5097074;27;45577;-82
2022/06/24 01:29:40;;;;;;;;;2.00;2.00;;;;;23.36;53.84;100001.47;5098498;27;45677;-81
2022/06/24 01:32:06;;;;;;;;;2.00;2.00;;;;;23.31;53.56;100000.16;5100214;27;45500;-80
2022/06/24 01:34:31;;;;;;;;;2.25;2.25;;;;;23.31;54.19;100017.16;5104070;27;45541;-81
2022/06/24 01:36:57;;;;;;;;;3.00;3.00;;;;;23.21;54.72;100018.91;5109729;27;44976;-80
2022/06/24 01:39:23;;;;;;;;;2.50;2.50;;;;;23.17;54.29;100021.00;5106955;27;46168;-81
2022/06/24 01:41:49;;;;;;;;;2.00;2.00;;;;;23.22;54.27;100032.25;5101227;27;45272;-81
2022/06/24 01:44:15;;;;;;;;;3.00;3.00;;;;;23.17;57.77;100025.50;5097320;27;45520;-81
2022/06/24 01:46:40;;;;;;;;;3.00;3.00;;;;;23.12;61.82;100042.06;5099611;27;45267;-82
2022/06/24 01:49:07;;;;;;;;;3.50;3.50;;;;;22.99;60.65;100036.78;5095685;27;46416;-81
2022/06/24 01:51:34;;;;;;;;;3.75;2.00;;;;;22.88;63.32;100032.25;5095715;27;45648;-81
2022/06/24 01:53:59;;;;;;;;;3.00;2.25;;;;;22.79;61.63;100034.81;5097452;27;45342;-81
2022/06/24 01:56:25;;;;;;;;;2.75;1.75;;;;;22.67;62.38;100020.53;5096855;27;45550;-82
2022/06/24 01:58:50;;;;;;;;;2.50;2.50;;;;;22.66;62.12;100025.03;5097845;27;45522;-80
2022/06/24 02:01:16;;;;;;;;;2.25;2.25;;;;;22.54;63.24;100004.47;5098967;27;45443;-80
2022/06/24 02:03:42;;;;;;;;;2.50;2.50;;;;;22.54;62.51;100015.22;5095767;27;45403;-80
2022/06/24 02:06:10;;;;;;;;;3.25;3.25;;;;;22.45;64.81;100022.19;5095889;27;45375;-81
2022/06/24 02:08:35;;;;;;;;;2.25;1.25;;;;;22.42;65.45;100019.75;5096559;27;48383;-81
2022/06/24 02:13:49;;;;;;;;;2.75;2.75;;;;;22.26;62.82;100009.31;5098020;27;45450;-80
2022/06/24 02:16:15;;;;;;;;;1.50;1.50;;;;;22.29;64.19;100006.38;5098654;27;45401;-79
2022/06/24 02:18:41;;;;;;;;;2.00;2.00;;;;;22.23;63.99;100011.34;5096361;27;45420;-81
2022/06/24 02:21:07;;;;;;;;;2.00;2.00;;;;;22.19;65.68;100013.44;5097171;27;45381;-76
2022/06/24 02:23:32;;;;;;;;;2.00;2.00;;;;;22.13;64.89;100028.22;5095836;27;45296;-77
2022/06/24 02:25:58;;;;;;;;;2.25;2.25;;;;;22.07;64.80;100033.22;5096325;27;45555;-77
2022/06/24 02:28:23;;;;;;;;;3.25;3.25;;;;;22.05;64.29;100043.25;5095701;27;45548;-77
2022/06/24 02:30:53;;;;;;;;;3.00;3.00;;;;;21.87;66.35;100019.47;5095934;27;45372;-79
2022/06/24 02:33:18;;;;;;;;;1.75;1.25;;;;;21.79;69.19;100009.28;5094513;27;45628;-77
2022/06/24 02:35:45;;;;;;;;;4.25;3.25;;;;;21.73;69.12;99990.94;5095268;27;45402;-77
2022/06/24 02:38:10;;;;;;;;;1.50;1.50;;;;;21.63;68.75;99990.75;5095592;27;46955;-78
2022/06/24 02:40:48;;;;;;;;;2.25;2.00;;;;;21.46;69.22;99988.47;5095365;27;45312;-77
2022/06/24 02:43:40;;;;;;;;;4.00;2.00;;;;;21.43;70.71;99984.16;5095799;27;45307;-76
2022/06/24 02:46:08;;;;;;;;;2.00;2.00;;;;;21.40;70.17;99981.69;5101338;27;45549;-77
2022/06/24 02:48:36;;;;;;;;;3.50;2.50;;;;;21.36;69.64;99982.91;5102008;27;46147;-77
2022/06/24 02:51:04;;;;;;;;;3.00;3.00;;;;;21.32;71.21;99988.63;5102513;27;45416;-76
2022/06/24 02:53:31;;;;;;;;;4.00;4.00;;;;;21.23;70.12;99984.81;5102645;27;45381;-77
2022/06/24 02:56:04;;;;;;;;;3.25;2.00;;;;;21.19;70.60;99978.78;5102329;27;45498;-77
2022/06/24 02:58:32;;;;;;;;;6.75;3.25;;;;;21.13;71.02;99981.91;5102101;27;46340;-78
2022/06/24 03:01:00;;;;;;;;;2.50;2.50;;;;;21.13;70.55;99987.28;5102110;27;45500;-76
2022/06/24 03:03:26;;;;;;;;;3.00;3.00;;;;;21.09;71.62;99973.25;5102338;27;45437;-77
2022/06/24 03:05:51;;;;;;;;;3.00;3.00;;;;;21.05;71.92;99977.13;5102426;27;45552;-77
2022/06/24 03:08:19;;;;;;;;;3.00;3.00;;;;;21.09;69.51;99980.44;5102026;27;45480;-77
2022/06/24 03:10:45;;;;;;;;;1.75;1.75;;;;;21.07;70.15;99987.75;5102414;27;45504;-78
2022/06/24 03:13:11;;;;;;;;;3.00;3.00;;;;;21.02;70.68;99982.72;5102333;27;45509;-78
2022/06/24 03:15:37;;;;;;;;;2.00;2.00;;;;;21.00;70.40;99984.66;5101230;27;45384;-76
2022/06/24 03:18:03;;;;;;;;;2.00;2.00;;;;;21.02;71.88;99981.88;5103076;27;46437;-77
2022/06/24 03:20:29;;;;;;;;;3.50;2.25;;;;;20.97;72.13;99976.81;5101498;27;45400;-77
2022/06/24 03:22:54;;;;;;;;;2.00;2.00;;;;;20.91;70.32;99958.47;5102100;27;45383;-76
2022/06/24 03:25:19;;;;;;;;;2.00;2.00;;;;;20.90;71.54;99970.19;5102382;27;45347;-77
2022/06/24 03:27:46;;;;;;;;;2.00;2.00;;;;;20.88;70.98;99972.13;5101653;27;46264;-77
2022/06/24 03:30:12;;;;;;;;;2.00;2.00;;;;;20.80;70.70;99977.19;5101844;27;45473;-77
2022/06/24 03:32:38;;;;;;;;;4.00;2.50;;;;;20.83;72.98;99976.97;5116649;27;45504;-80
2022/06/24 03:35:06;;;;;;;;;3.75;3.75;;;;;20.81;72.70;99984.28;5110059;27;45354;-80
2022/06/24 03:37:33;;;;;;;;;4.00;4.00;;;;;20.63;71.15;99960.41;5105216;27;45420;-78
2022/06/24 03:39:59;;;;;;;;;3.00;1.75;;;;;20.73;71.51;99983.00;5103518;27;45400;-81
2022/06/24 03:42:25;;;;;;;;;3.00;3.00;;;;;20.72;71.52;99981.25;5103033;27;45441;-80
2022/06/24 03:44:51;;;;;;;;;3.00;3.00;;;;;20.69;71.90;99980.63;5102363;27;45467;-81
2022/06/24 03:47:16;;;;;;;;;3.00;3.00;;;;;20.67;71.55;99972.69;5103606;27;45410;-77
2022/06/24 03:49:42;;;;;;;;;2.00;2.00;;;;;20.62;70.99;99969.47;5100716;27;45520;-76
2022/06/24 03:52:08;;;;;;;;;3.00;3.00;;;;;20.62;72.83;99969.47;5102320;27;45461;-78
2022/06/24 03:54:34;;;;;;;;;3.50;3.50;;;;;20.53;71.96;99954.03;5101787;27;45481;-76
2022/06/24 03:57:00;;;;;;;;;7.00;4.75;;;;;20.48;72.72;99948.09;5097249;27;47733;-76
2022/06/24 03:59:25;;;;;;;;;3.75;3.00;;;;;20.56;71.98;99959.16;5098214;27;45443;-77
2022/06/24 04:01:50;;;;;;;;;7.75;6.25;;;;;20.49;72.23;99952.50;5098637;27;45810;-77
2022/06/24 04:04:16;;;;;;;;;6.00;3.00;;;;;20.48;73.17;99950.78;5099052;27;45457;-77
2022/06/24 04:06:41;;;;;;;;;2.00;1.00;;;;;20.47;71.79;99949.94;5096795;27;46438;-77
2022/06/24 04:09:06;;;;;;;;;3.25;3.00;;;;;20.45;72.18;99957.22;5098132;27;45446;-75
2022/06/24 04:11:32;;;;;;;;;3.25;3.00;;;;;20.38;72.56;99956.81;5098685;27;45469;-77
2022/06/24 04:13:59;;;;;;;;;4.25;4.25;;;;;20.42;72.47;99955.63;5098441;27;45371;-78
2022/06/24 04:16:24;;;;;;;;;4.00;4.00;;;;;20.37;72.50;99955.06;5098154;27;45448;-76
2022/06/24 04:18:50;;;;;;;;;3.00;3.00;;;;;20.41;71.77;99953.91;5098291;27;45348;-78
2022/06/24 04:21:17;;;;;;;;;5.00;2.50;;;;;20.49;72.80;99974.81;5092601;27;45290;-78
2022/06/24 04:23:43;;;;;;;;;3.50;3.50;;;;;20.52;71.48;99976.44;5076008;28;45470;-78
2022/06/24 04:26:09;;;;;;;;;5.50;5.50;;;;;20.45;71.21;99973.31;5076672;27;45556;-78
2022/06/24 04:28:35;;;;;;;;;3.25;3.25;;;;;20.41;71.70;99978.06;5079250;27;45355;-80
2022/06/24 04:31:01;;;;;;;;;3.25;3.25;;;;;20.55;71.87;99985.13;5080072;27;45408;-80
2022/06/24 04:33:27;;;;;;;;;4.50;4.50;;;;;20.97;71.17;99982.19;5078694;27;45519;-80
2022/06/24 04:35:52;;;;;;;;;2.75;2.75;;;;;21.01;69.87;99969.38;5077282;28;45666;-77
2022/06/24 04:38:18;;;;;;;;;3.00;3.00;;;;;21.17;69.34;99979.88;5076404;27;45430;-77
2022/06/24 04:40:43;;;;;;;;;3.00;3.00;;;;;21.11;68.84;99971.28;5076107;28;45378;-79
2022/06/24 04:43:09;;;;;;;;;6.25;3.00;;;;;21.23;68.63;99980.28;5076560;27;45321;-77
2022/06/24 04:45:35;;;;;;;;;3.50;3.50;;;;;21.31;68.52;99985.06;5076288;27;45435;-77
2022/06/24 04:48:00;;;;;;;;;3.00;3.00;;;;;21.46;67.84;99975.03;5076776;27;45458;-77
2022/06/24 04:50:26;;;;;;;;;6.25;3.25;;;;;21.72;67.13;99959.63;5078154;27;45529;-77
2022/06/24 04:52:51;;;;;;;;;3.75;2.25;;;;;21.85;67.32;99973.00;5086572;27;45591;-78
2022/06/24 04:55:17;;;;;;;;;3.50;2.50;;;;;21.80;65.93;99969.78;5075630;27;46477;-77
2022/06/24 04:57:42;;;;;;;;;1.75;1.75;;;;;21.94;65.75;99971.41;5076038;27;45465;-77
2022/06/24 05:00:11;;;;;;;;;4.00;4.00;;;;;22.32;64.83;99973.88;5075758;27;45359;-77
2022/06/24 05:02:36;;;;;;;;;3.50;2.00;;;;;22.79;63.22;99971.06;5076793;27;45307;-77
2022/06/24 05:05:03;;;;;;;;;3.50;2.00;;;;;23.01;63.06;99980.06;5075626;28;46340;-78
2022/06/24 05:07:29;;;;;;;;;3.75;3.75;;;;;23.44;61.38;99976.56;5073425;28;45466;-78
2022/06/24 05:09:54;;;;;;;;;4.75;3.50;;;;;23.37;61.18;99978.06;5074577;28;45354;-78
2022/06/24 05:12:20;;;;;;;;;2.25;2.25;;;;;23.20;61.23;99963.28;5094573;27;45505;-78
2022/06/24 05:14:46;;;;;;;;;2.25;2.25;;;;;23.17;61.37;99975.19;5096111;27;46368;-76
2022/06/24 05:17:11;;;;;;;;;1.00;1.00;;;;;23.54;62.00;99972.09;5096389;27;45584;-77
2022/06/24 05:19:37;;;;;;;;;4.00;3.00;;;;;24.28;59.49;99960.44;5111985;27;45529;-78
2022/06/24 05:22:02;;;;;;;;;3.50;3.00;;;;;24.76;58.34;99966.22;5096025;27;45560;-77
2022/06/24 05:24:27;;;;;;;;;2.00;2.00;;;;;25.41;55.86;99958.56;5095472;27;45523;-81
2022/06/24 05:26:53;;;;;;;;;6.50;4.50;;;;;26.09;53.46;99962.25;5096375;27;45529;-80
2022/06/24 05:29:18;;;;;;;;;4.50;3.75;;;;;26.82;51.54;99953.47;5101988;27;45511;-80
2022/06/24 05:31:45;;;;;;;;;4.00;4.00;;;;;27.08;49.72;99959.84;5103553;27;45474;-81
2022/06/24 05:34:10;;;;;;;;;3.00;3.00;;;;;26.78;50.78;99971.88;5099826;27;45544;-82
2022/06/24 05:36:36;;;;;;;;;3.00;2.00;;;;;26.37;51.24;99963.16;5098381;27;45436;-82
2022/06/24 05:39:03;;;;;;;;;2.00;2.00;;;;;26.04;51.88;99960.84;5096026;27;45369;-82
2022/06/24 05:41:28;;;;;;;;;4.00;3.00;;;;;25.83;52.00;99973.66;5095762;27;45323;-81
2022/06/24 05:43:54;;;;;;;;;3.00;3.00;;;;;25.59;52.41;99977.66;5097556;27;45473;-80
2022/06/24 05:46:20;;;;;;;;;4.75;3.00;;;;;25.34;52.72;99969.09;5096341;27;45461;-81
2022/06/24 05:48:45;;;;;;;;;4.00;2.00;;;;;25.04;53.59;99956.50;5097431;27;45557;-82
2022/06/24 05:51:12;;;;;;;;;2.25;2.25;;;;;24.94;53.94;99971.84;5100138;27;45330;-81
2022/06/24 05:56:23;;;;;;;;;3.00;3.00;;;;;24.64;54.86;99984.38;5096507;27;45367;-81
2022/06/24 05:58:49;;;;;;;;;3.00;3.00;;;;;24.48;56.25;99987.56;5094960;27;45414;-77
2022/06/24 06:01:15;;;;;;;;;3.00;3.00;;;;;24.34;55.96;99974.38;5095975;27;45458;-78
2022/06/24 06:03:43;;;;;;;;;2.00;2.00;;;;;24.17;56.28;99983.97;5095414;27;45399;-81
2022/06/24 06:06:09;;;;;;;;;2.00;2.00;;;;;24.22;55.65;99985.28;5096164;27;45393;-78
2022/06/24 06:08:35;;;;;;;;;2.00;2.00;;;;;24.21;55.52;99988.09;5095231;27;45411;-81
2022/06/24 06:11:01;;;;;;;;;4.00;4.00;;;;;24.04;55.47;99986.88;5095433;27;45388;-78
2022/06/24 06:13:26;;;;;;;;;4.00;3.00;;;;;23.95;55.81;99992.06;5095808;27;46370;-78
2022/06/24 06:15:52;;;;;;;;;4.50;4.50;;;;;23.84;56.99;99994.78;5096445;27;45497;-79
2022/06/24 06:18:17;;;;;;;;;4.25;2.75;;;;;23.72;57.64;100004.78;5095552;27;45662;-82
2022/06/24 06:20:43;;;;;;;;;6.50;5.00;;;;;23.56;57.62;100007.03;5099544;27;45501;-81
2022/06/24 06:23:08;;;;;;;;;6.00;4.00;;;;;23.30;57.58;99982.25;5098839;27;46387;-81
2022/06/24 06:25:34;;;;;;;;;3.75;2.75;;;;;23.17;58.66;100002.13;5098688;27;45580;-81
2022/06/24 06:28:01;;;;;;;;;3.75;3.75;;;;;23.00;57.96;99992.72;5096489;27;45436;-81
2022/06/24 06:30:29;;;;;;;;;2.25;2.25;;;;;22.87;58.70;99984.75;5096736;27;45526;-81
2022/06/24 06:32:54;;;;;;;;;3.00;2.00;;;;;22.91;59.67;100000.66;5097438;27;45757;-80
2022/06/24 06:35:20;;;;;;;;;3.75;3.75;;;;;22.90;59.69;100010.59;5096168;27;45308;-81
2022/06/24 06:37:45;;;;;;;;;4.00;4.00;;;;;22.83;59.55;99999.44;5095802;27;45355;-81
2022/06/24 06:40:11;;;;;;;;;5.00;3.00;;;;;22.75;59.47;100001.06;5097797;27;45289;-82
2022/06/24 06:42:36;;;;;;;;;3.00;3.00;;;;;22.64;59.55;99983.06;5095476;27;46501;-82
2022/06/24 06:45:01;;;;;;;;;4.00;4.00;;;;;22.80;58.86;100015.84;5112273;27;45531;-81
2022/06/24 06:47:27;;;;;;;;;2.25;1.25;;;;;22.75;58.79;100001.06;5099205;27;45411;-80
2022/06/24 06:49:52;;;;;;;;;1.75;1.75;;;;;22.79;59.19;100003.38;5098309;27;45484;-82
2022/06/24 06:52:17;;;;;;;;;3.00;3.00;;;;;22.91;59.28;100016.81;5099314;27;46240;-82
2022/06/24 06:54:43;;;;;;;;;4.00;4.00;;;;;22.95;57.99;100011.06;5097451;27;45397;-83
2022/06/24 06:57:08;;;;;;;;;5.25;5.25;;;;;23.10;57.46;100022.47;5096297;27;45421;-82
2022/06/24 06:59:33;;;;;;;;;3.50;2.00;;;;;23.22;57.72;100021.47;5095914;27;45361;-82
2022/06/24 07:01:59;;;;;;;;;2.50;2.50;;;;;23.30;57.83;100017.28;5095231;27;45432;-82
2022/06/24 07:04:24;;;;;;;;;1.00;1.00;;;;;23.33;57.20;100019.75;5096092;27;45411;-83
2022/06/24 07:06:52;;;;;;;;;3.00;3.00;;;;;23.38;57.12;100020.19;5096486;27;45417;-83
2022/06/24 07:09:18;;;;;;;;;4.75;4.00;;;;;23.44;57.70;100003.50;5095777;27;45343;-81
2022/06/24 07:11:43;;;;;;;;;3.50;3.50;;;;;23.67;57.41;100004.31;5096018;27;46551;-82
2022/06/24 07:14:08;;;;;;;;;3.00;3.00;;;;;23.90;56.28;100005.09;5097061;27;45281;-82
2022/06/24 07:16:34;;;;;;;;;2.00;2.00;;;;;24.11;55.90;99996.13;5098708;27;45341;-82
2022/06/24 07:18:59;;;;;;;;;2.00;2.00;;;;;24.40;55.24;100000.84;5095259;27;45380;-81
2022/06/24 07:21:24;;;;;;;;;3.00;2.50;;;;;24.49;54.48;99978.47;5094918;27;49321;-79
2022/06/24 07:23:50;;;;;;;;;3.00;3.00;;;;;24.80;53.35;99976.63;5094915;27;45372;-78
2022/06/24 07:26:16;;;;;;;;;2.00;2.00;;;;;25.33;53.04;99999.84;5098551;27;45254;-76
2022/06/24 07:28:42;;;;;;;;;2.25;2.25;;;;;25.53;51.62;99989.03;5105070;27;45344;-78
2022/06/24 07:31:20;;;;;;;;;1.50;1.50;;;;;26.27;51.74;100005.66;5101140;27;46548;-82
2022/06/24 07:33:47;;;;;;;;;1.50;1.00;;;;;27.11;48.38;99978.53;5098106;27;45409;-77
2022/06/24 07:36:13;;;;;;;;;2.75;2.00;;;;;27.87;46.50;99997.28;5099468;27;45462;-81
2022/06/24 07:38:39;;;;;;;;;1.00;1.00;;;;;28.46;44.80;99984.81;5100344;27;45324;-82
2022/06/24 07:41:04;;;;;;;;;2.00;2.00;;;;;28.85;43.34;99991.69;5100424;27;45461;-80
2022/06/24 07:43:30;;;;;;;;;1.00;1.00;;;;;28.91;43.24;99954.81;5101068;27;45326;-82
2022/06/24 07:45:56;;;;;;;;;2.00;1.00;;;;;29.78;41.78;99968.94;5101081;27;45486;-83
2022/06/24 07:48:22;;;;;;;;;1.25;0.75;;;;;30.56;40.61;99983.84;5100687;27;45636;-82
2022/06/24 07:50:48;;;;;;;;;2.00;2.00;;;;;30.96;41.24;99938.38;5102006;27;46976;-82
2022/06/24 07:53:14;;;;;;;;;2.00;1.00;;;;;32.07;38.27;99979.06;5089908;27;45383;-82
2022/06/24 07:58:24;;;;;;;;;3.00;3.00;;;;;32.84;36.67;99946.97;5081592;28;45522;-83
2022/06/24 08:00:49;;;;;;;;;1.00;1.00;;;;;33.23;35.30;99954.00;5078073;28;48102;-82
2022/06/24 08:03:15;;;;;;;;;0.75;0.75;;;;;33.32;35.34;99954.75;5079395;28;45418;-82
2022/06/24 08:05:41;;;;;;;;;1.00;1.00;;;;;33.49;34.78;99963.53;5078011;27;45547;-82
2022/06/24 08:08:06;;;;;;;;;1.00;1.00;;;;;33.29;34.40;99961.44;5077113;27;45507;-79
2022/06/24 08:10:32;;;;;;;;;3.25;3.25;;;;;32.67;34.87;99960.88;5076935;27;45415;-79
2022/06/24 08:12:59;;;;;;;;;1.00;1.00;;;;;32.15;35.42;99973.53;5076850;27;45429;-78
2022/06/24 08:15:24;;;;;;;;;1.50;1.50;;;;;31.85;36.71;99969.88;5077696;27;45406;-78
2022/06/24 08:17:50;;;;;;;;;3.25;2.50;;;;;31.55;36.80;99979.84;5077651;27;45448;-79
2022/06/24 08:20:17;;;;;;;;;1.75;1.75;;;;;31.28;36.79;99984.75;5075891;27;45451;-76
2022/06/24 08:22:42;;;;;;;;;4.00;3.00;;;;;30.97;37.50;99989.16;5077141;28;45443;-79
2022/06/24 08:25:08;;;;;;;;;3.00;3.00;;;;;30.61;38.17;99992.38;5076431;27;45799;-78
2022/06/24 08:27:34;;;;;;;;;2.50;1.50;;;;;30.21;38.86;99982.38;5076803;27;45535;-78
2022/06/24 08:29:59;;;;;;;;;1.00;1.00;;;;;30.07;38.40;99983.94;5079179;27;46077;-78
2022/06/24 08:32:24;;;;;;;;;1.50;1.00;;;;;29.81;38.58;99974.09;5097173;27;45583;-77
2022/06/24 08:34:50;;;;;;;;;1.75;1.75;;;;;29.94;39.67;99960.81;5096859;27;45435;-78
2022/06/24 08:37:15;;;;;;;;;1.00;1.00;;;;;30.44;38.51;99966.19;5097751;27;45392;-77
2022/06/24 08:39:41;;;;;;;;;1.00;1.00;;;;;30.67;37.34;99970.88;5096644;27;45605;-78
2022/06/24 08:42:11;;;;;;;;;2.00;2.00;;;;;30.85;37.92;99973.38;5096620;27;45460;-78
2022/06/24 08:44:36;;;;;;;;;2.50;1.00;;;;;30.79;37.37;99974.91;5096945;27;45530;-77
2022/06/24 08:47:03;;;;;;;;;1.00;1.00;;;;;30.46;36.14;99980.50;5095014;27;45575;-78
2022/06/24 08:49:28;;;;;;;;;2.00;2.00;;;;;30.26;36.26;99975.41;5096458;27;45456;-78
2022/06/24 08:51:58;;;;;;;;;1.00;0.00;;;;;29.94;37.19;99974.41;5087109;27;45463;-78
2022/06/24 08:54:28;;;;;;;;;0.25;0.25;;;;;29.60;37.54;99948.16;5076579;27;45392;-82
2022/06/24 08:56:54;;;;;;;;;1.25;1.25;;;;;29.73;37.77;99968.59;5060094;28;45501;-82
2022/06/24 08:59:19;;;;;;;;;1.00;0.00;;;;;30.17;36.73;99951.94;5077643;27;46204;-82
2022/06/24 09:01:47;;;;;;;;;0.25;0.25;;;;;30.61;35.96;99946.03;5076672;27;45491;-81
2022/06/24 09:04:13;;;;;;;;;0.00;0.00;;;;;31.28;36.03;99952.88;5076351;27;45415;-77
2022/06/24 09:06:40;;;;;;;;;2.00;2.00;;;;;31.74;35.80;99938.38;5075850;27;45776;-79
2022/06/24 09:09:06;;;;;;;;;1.00;1.00;;;;;32.01;34.72;99947.88;5075876;27;45453;-79
2022/06/24 09:11:42;;;;;;;;;2.00;0.50;;;;;32.29;33.79;99939.06;5075967;27;45361;-78
2022/06/24 09:14:09;;;;;;;;;2.50;1.75;;;;;31.88;34.44;99934.00;5076573;27;45505;-79
2022/06/24 09:16:37;;;;;;;;;2.25;0.75;;;;;31.35;34.32;99940.22;5075491;27;45478;-79
2022/06/24 09:19:05;;;;;;;;;1.50;1.00;;;;;31.35;35.23;99934.75;5075501;27;45967;-78
2022/06/24 09:21:39;;;;;;;;;1.00;1.00;;;;;31.26;34.40;99933.09;5092058;27;45386;-78
2022/06/24 09:24:06;;;;;;;;;0.75;0.75;;;;;30.58;35.35;99934.63;5109491;27;45284;-79
2022/06/24 09:26:40;;;;;;;;;0.00;0.00;;;;;30.14;36.11;99933.19;5100600;27;45399;-78
2022/06/24 09:29:10;;;;;;;;;1.00;1.00;;;;;30.45;35.17;99918.84;5096135;27;47330;-78
2022/06/24 09:31:37;;;;;;;;;0.00;0.00;;;;;30.40;35.39;99921.25;5095416;27;45448;-78
2022/06/24 09:34:20;;;;;;;;;1.00;1.00;;;;;30.67;36.23;99927.25;5096121;27;45396;-79
2022/06/24 09:36:47;;;;;;;;;1.25;1.25;;;;;30.79;36.42;99906.75;5096188;27;45559;-76
2022/06/24 09:39:14;;;;;;;;;1.00;1.00;;;;;31.18;35.42;99911.31;5095844;27;46753;-77
2022/06/24 09:41:56;;;;;;;;;0.00;0.00;;;;;31.31;34.72;99908.00;5095577;27;45365;-78
2022/06/24 09:44:22;;;;;;;;;0.00;0.00;;;;;31.11;34.59;99897.56;5096592;27;45628;-79
2022/06/24 09:47:00;;;;;;;;;0.75;0.75;;;;;31.47;35.40;99907.00;5093822;27;45489;-78
2022/06/24 09:49:26;;;;;;;;;0.25;0.00;;;;;32.09;34.28;99905.97;5094910;27;45439;-79
2022/06/24 09:51:51;;;;;;;;;0.00;0.00;;;;;32.33;31.90;99902.13;5096494;27;45420;-78
2022/06/24 09:54:17;;;;;;;;;0.00;0.00;;;;;33.02;32.46;99906.38;5074617;27;45363;-79
2022/06/24 09:56:46;;;;;;;;;0.00;0.00;;;;;33.63;31.22;99891.41;5075333;27;45376;-77
2022/06/24 10:02:02;;;;;;;;;0.00;0.00;;;;;33.93;29.78;99900.31;5074472;28;45428;-79
2022/06/24 10:04:28;;;;;;;;;0.00;0.00;;;;;34.17;29.20;99898.16;5073659;27;45427;-78
2022/06/24 10:06:57;;;;;;;;;0.00;0.00;;;;;34.06;30.71;99902.31;5075243;28;45621;-78
2022/06/24 10:09:28;;;;;;;;;0.00;0.00;;;;;33.54;30.53;99898.94;5076140;27;46574;-82
2022/06/24 10:11:57;;;;;;;;;0.75;0.75;;;;;32.93;31.17;99902.94;5092982;27;45786;-82
2022/06/24 10:14:24;;;;;;;;;1.00;1.00;;;;;32.09;31.83;99877.78;5099404;27;45405;-81
2022/06/24 10:16:50;;;;;;;;;0.00;0.00;;;;;31.65;32.48;99904.00;5096983;27;45570;-82
2022/06/24 10:19:18;;;;;;;;;1.00;1.00;;;;;31.32;33.20;99904.22;5096113;27;45416;-81
2022/06/24 10:21:47;;;;;;;;;0.00;0.00;;;;;31.09;33.60;99898.78;5096485;27;45439;-83
2022/06/24 10:24:17;;;;;;;;;0.00;0.00;;;;;31.02;34.39;99908.69;5095634;27;45537;-82
2022/06/24 10:26:46;;;;;;;;;0.00;0.00;;;;;30.75;33.25;99913.59;5097418;27;45512;-81
2022/06/24 10:29:14;;;;;;;;;0.00;0.00;;;;;30.68;34.32;99913.44;5095876;27;46508;-82
2022/06/24 10:31:49;;;;;;;;;0.00;0.00;;;;;30.50;34.70;99919.16;5097214;27;45525;-82
2022/06/24 10:34:20;;;;;;;;;0.75;0.00;;;;;30.59;35.32;99909.91;5094928;27;45405;-82
2022/06/24 10:36:46;;;;;;;;;0.00;0.00;;;;;30.60;34.67;99895.25;5096551;27;45585;-81
2022/06/24 10:39:15;;;;;;;;;1.50;1.50;;;;;30.70;34.61;99900.50;5097046;27;46556;-81
2022/06/24 10:41:41;;;;;;;;;1.00;0.00;;;;;31.28;34.39;99891.97;5097094;27;45451;-82
2022/06/24 10:44:28;;;;;;;;;0.25;0.00;;;;;31.63;33.18;99889.69;5097434;27;45401;-82
2022/06/24 10:47:10;;;;;;;;;0.00;0.00;;;;;32.51;33.47;99892.69;5096626;27;45538;-82
2022/06/24 10:49:50;;;;;;;;;0.00;0.00;;;;;33.17;31.70;99886.31;5095407;27;45365;-82
2022/06/24 10:52:37;;;;;;;;;0.00;0.00;;;;;33.41;30.60;99877.75;5095161;27;45528;-82
2022/06/24 10:55:17;;;;;;;;;1.00;1.00;;;;;33.40;30.71;99887.00;5097461;27;45350;-82
2022/06/24 10:57:49;;;;;;;;;0.00;0.00;;;;;33.22;29.82;99884.75;5095207;27;45456;-80
2022/06/24 11:00:27;;;;;;;;;0.00;0.00;;;;;33.08;30.20;99870.03;5091483;27;47115;-82
2022/06/24 11:03:04;;;;;;;;;0.00;0.00;;;;;33.05;30.21;99880.53;5075902;27;45552;-81
2022/06/24 11:05:37;;;;;;;;;1.00;1.00;;;;;32.68;31.00;99869.59;5076309;27;45410;-80
2022/06/24 11:08:19;;;;;;;;;0.00;0.00;;;;;32.22;31.18;99878.84;5080735;27;45495;-81
2022/06/24 11:10:47;;;;;;;;;0.00;0.00;;;;;32.15;31.66;99856.03;5081898;27;46292;-82
2022/06/24 11:13:13;;;;;;;;;0.25;0.25;;;;;32.54;31.56;99886.81;5080047;27;45501;-82
2022/06/24 11:15:45;;;;;;;;;0.00;0.00;;;;;32.41;32.14;99882.88;5080593;27;45527;-82
2022/06/24 11:18:25;;;;;;;;;0.00;0.00;;;;;32.42;31.06;99881.84;5085070;27;45457;-82
2022/06/24 11:20:54;;;;;;;;;0.00;0.00;;;;;32.48;31.15;99884.84;5093485;27;46665;-80
2022/06/24 11:23:23;;;;;;;;;0.25;0.00;;;;;32.45;30.20;99882.50;5081144;28;45493;-81
2022/06/24 11:25:50;;;;;;;;;0.00;0.00;;;;;32.45;30.15;99887.97;5079708;27;45450;-80
2022/06/24 11:28:24;;;;;;;;;0.00;0.00;;;;;32.62;31.00;99884.00;5079400;28;45460;-82
2022/06/24 11:30:52;;;;;;;;;0.00;0.00;;;;;32.49;31.20;99883.81;5077490;28;47775;-81
2022/06/24 11:33:18;;;;;;;;;0.00;0.00;;;;;32.29;31.64;99876.22;5079069;27;45540;-81
2022/06/24 11:35:46;;;;;;;;;0.00;0.00;;;;;31.84;32.77;99891.69;5079754;28;45461;-81
2022/06/24 11:38:11;;;;;;;;;0.00;0.00;;;;;31.65;33.31;99872.06;5081869;27;45540;-81
2022/06/24 11:40:39;;;;;;;;;0.00;0.00;;;;;31.69;33.36;99873.41;5080729;27;45560;-81
2022/06/24 11:43:11;;;;;;;;;0.00;0.00;;;;;31.55;32.81;99876.09;5077600;28;45399;-82
2022/06/24 11:45:42;;;;;;;;;0.00;0.00;;;;;31.48;32.62;99875.97;5080714;27;45330;-80